Meteo Giornale » Osservazioni meteo Italia » Venezia-Tessera

ore: 17:50 - Osservazioni Meteo Venezia-Tessera
Lat. 45° 30' N Lon. 12° 20' E Alt. 2 metri s.l.m.

poco_nuvoloso Europe/Rome

25 °C

Poco Nuvoloso

Temp. 24 Ore

22 °C

30 °C

Nord

18.5 Km/h

Dew point 15 °C

Umidità 53 %

Visibilità  10 Km

Il sole sorge alle ore 05:53

Il sole tramonta alle ore 20:40

Data e Ora Cielo e Fenomeni T °C DP °C Um. % Pres. hPa Vis. km Vento km/h
Oggi h: 17:50 poco_nuvoloso Poco Nuvoloso 25 15 53 1005 10 N 18.5
Oggi h: 17:20 poco_nuvoloso Poco Nuvoloso 26 15 50 1005 10 N 22.2
Oggi h: 16:50 nuvoloso Nuvoloso 26 15 50 1005 10 N/NO 20.3
Oggi h: 15:50 nuvoloso Nuvoloso 25 17 61 1005 10 N 22.2
Oggi h: 15:20 nuvoloso Nuvoloso 26 16 54 1004 10 N 18.5
Oggi h: 14:50 poco_nuvoloso Poco Nuvoloso 26 16 54 1004 10 N/NE 20.3
Oggi h: 14:20 poco_nuvoloso Poco Nuvoloso 30 18 48 1003 10 SO 37
Oggi h: 13:50 nuvoloso Nuvoloso 30 22 62 1003 10 S/SO 27.8
Oggi h: 13:20 nuvoloso Nuvoloso 29 21 62 1003 10 SO 20.3
Oggi h: 12:50 sereno Sereno 29 21 62 1002 10 SO 18.5
Oggi h: 12:20 poco_nuvoloso Poco Nuvoloso 27 19 61 1003 10 O 9.3
Oggi h: 11:50 nuvoloso_temporali Temporale nelle Vicinanze 28 22 69 1003 10 SO 18.5
Oggi h: 11:20 poco_nuvoloso Poco Nuvoloso 27 22 74 1003 9 S/SO 13
Oggi h: 10:50 nuvoloso Nuvoloso 27 22 74 1004 10 S/SO 9.3
Oggi h: 10:20 nuvoloso Nuvoloso 26 22 78 1004 10 SO 9.3
Oggi h: 09:50 nuvoloso Nuvoloso 26 21 73 1004 10 N 5.5
Oggi h: 09:20 sereno Sereno 26 21 73 1003 10 N 5.5
Oggi h: 08:50 sereno Sereno 26 20 69 1003 10 N 5.5
Oggi h: 08:20 sereno Sereno 25 20 73 1004 10 E 7.4
Oggi h: 07:50 sereno Sereno 24 19 73 1003 10 N/NE 9.3
Oggi h: 07:20 sereno Sereno 23 19 78 1003 10 N 7.4
Oggi h: 06:50 sereno Sereno 22 20 88 1003 10 NO 11.1
Oggi h: 06:20 sereno Sereno 22 20 88 1003 10 N 5.5
Oggi h: 05:50 sereno Sereno 23 20 83 1003 10 N 5.5
Oggi h: 05:20 sereno Sereno 23 20 83 1003 10 N/NE 7.4
Oggi h: 04:50 sereno Sereno 23 20 83 1004 10 N/NE 7.4
Oggi h: 04:20 sereno Sereno 23 20 83 1004 10 NE 11.1
Oggi h: 03:50 sereno Sereno 24 21 83 1004 10 N/NE 9.3
Oggi h: 03:20 sereno Sereno 24 21 83 1004 10 N 9.3
Oggi h: 02:50 sereno Sereno 24 21 83 1004 10 NE 11.1
Oggi h: 02:20 sereno Sereno 24 21 83 1004 10 NE 14.8
Oggi h: 01:50 sereno Sereno 25 22 83 1005 10 NE 11.1
Oggi h: 01:20 sereno Sereno 25 22 83 1005 10 E 14.8
Oggi h: 00:50 sereno Sereno 25 22 83 1005 10 E/NE 11.1
Oggi h: 00:20 sereno Sereno 25 22 83 1005 10 NE 13
Ieri h: 23:50 sereno Sereno 25 22 83 1005 10 NE 13
Ieri h: 23:20 sereno Sereno 26 23 83 1006 10 N/NE 14.8
Ieri h: 22:20 nuvoloso Nuvoloso 27 23 78 1006 10 SE 9.3
Ieri h: 21:50 coperto_pioggia Pioggia Debole 27 23 78 1007 10 N 5.5
Ieri h: 21:20 nuvoloso Nuvoloso 27 24 83 1006 10 SE 11.1
Ieri h: 20:50 poco_nuvoloso Poco Nuvoloso 27 24 83 1006 10 S/SE 9.3
Ieri h: 20:20 sereno Sereno 27 24 83 1006 10 S/SE 13
Ieri h: 19:50 sereno Sereno 28 23 74 1007 10 SE 13
Ieri h: 19:20 sereno Sereno 28 22 69 1007 10 S/SE 13
Ieri h: 18:50 sereno Sereno 30 20 55 1006 10 S/SE 9.3